This is the latest recevied weather packets stored in our database for station/object KM4LTG. If no packets are shown the sender has not sent any weather packets the latest 10 day(s).
| Time | Temp. | Humidity | Pressure | Rain* | Wind** | Luminosity | Snow |
|---|---|---|---|---|---|---|---|
| 1777431847 | 25.56° C | 69% | 1019.2 hPa | 0 mm | - | - | - |
| 1777429986 | 25.56° C | 68% | 1018.6 hPa | 0 mm | - | - | - |
| 1777429450 | 25.56° C | 68% | 1018.6 hPa | 0 mm | - | - | - |
| 1777428118 | 25° C | 67% | 1018.5 hPa | 0 mm | - | - | - |
| 1777427836 | 25° C | 67% | 1018.6 hPa | 0 mm | - | - | - |
| 1777425466 | 25.56° C | 61% | 1018.5 hPa | 0 mm | - | - | - |
| 1777425215 | 25.56° C | 61% | 1018.3 hPa | 0 mm | - | - | - |
| 1777424941 | 25.56° C | 60% | 1018.4 hPa | 0 mm | - | - | - |
| 1777424670 | 25.56° C | 61% | 1018.3 hPa | 0 mm | - | - | - |
| 1777423056 | 26.67° C | 57% | 1018 hPa | 0 mm | - | - | - |
| 1777422814 | 26.67° C | 57% | 1018 hPa | 0 mm | - | - | - |
| 1777421806 | 26.67° C | 56% | 1017.9 hPa | 0 mm | - | - | - |
| 1777419182 | 28.33° C | 52% | 1017.8 hPa | 0 mm | - | - | - |
| 1777415493 | 28.89° C | 53% | 1017.8 hPa | 0 mm | - | - | - |
| 1777414151 | 28.89° C | 52% | 1017.9 hPa | 0 mm | - | - | - |
| 1777411282 | 28.89° C | 51% | 1018 hPa | 0 mm | - | - | - |
| 1777410248 | 28.89° C | 51% | 1018.3 hPa | 0 mm | - | - | - |
| 1777409741 | 28.89° C | 53% | 1018.4 hPa | 0 mm | - | - | - |
| 1777408091 | 28.89° C | 58% | 1019 hPa | 0 mm | - | - | - |
| 1777407812 | 28.33° C | 58% | 1019 hPa | 0 mm | - | - | - |
| 1777407536 | 28.33° C | 60% | 1019.1 hPa | 0 mm | - | - | - |
| 1777407291 | 28.33° C | 57% | 1019.1 hPa | 0 mm | - | - | - |
| 1777407036 | 28.33° C | 57% | 1019.1 hPa | 0 mm | - | - | - |
| 1777406526 | 28.33° C | 58% | 1019.2 hPa | 0 mm | - | - | - |
| 1777404856 | 28.89° C | 59% | 1019.4 hPa | 0 mm | - | - | - |
* Rain latest hour (hover to see other rain measurements)
** Current wind speed in m/s (hover to see current wind gust speed)